Historical Weather Data

Soule Park Golf Course
1033 East Ojai Ave
Ojai, CA 93023
Date ET
(Inches)
Rain
(Inches)
Temp °F
Humidity
Avg
Wind MPH
Avg
Solar Wm2
Avg
High Ave Low
8/1/18 0.24 0.00 96.0 79.5 64.3 47 2.3 290
8/2/18 0.24 0.00 94.6 77.7 63.0 51 2.3 303
8/3/18 0.25 0.00 95.8 78.2 60.2 51 2.1 323
8/4/18 0.24 0.00 93.6 76.8 58.0 54 2.3 322
8/5/18 0.24 0.00 94.0 75.6 58.0 57 2.0 325
8/6/18 0.26 0.00 103.1 81.1 55.8 40 2.5 328
8/7/18 0.26 0.00 102.1 81.7 58.2 32 2.4 325
8/8/18 0.26 0.00 99.8 79.3 58.6 39 2.3 326
8/9/18 0.24 0.00 102.3 80.6 58.6 39 2.3 297
8/10/18 0.24 0.00 94.8 78.9 62.5 39 2.6 288
8/11/18 0.22 0.00 90.2 75.0 60.7 56 2.7 284
8/12/18 0.22 0.00 91.6 75.2 62.3 55 2.2 293
8/13/18 0.23 0.00 90.3 73.2 57.6 59 2.5 304
8/14/18 0.21 0.00 88.1 72.7 60.0 68 2.5 294
8/15/18 0.22 0.00 91.1 74.0 58.9 66 2.4 299
8/16/18 0.22 0.00 90.9 75.3 60.4 67 2.6 293
8/17/18 0.21 0.00 91.3 75.8 62.8 70 2.6 287
8/18/18 0.21 0.00 92.0 75.3 63.1 72 2.4 286
8/19/18 0.21 0.00 92.4 74.3 60.1 71 2.3 292
8/20/18 0.18 0.00 86.9 72.3 61.0 75 2.5 258
8/21/18 0.18 0.00 87.0 71.7 62.2 78 2.4 257
8/22/18 0.19 0.00 89.7 71.1 60.1 72 2.2 266
8/23/18 0.21 0.00 88.5 70.5 55.1 68 2.2 299
8/24/18 0.19 0.00 84.2 68.8 52.6 70 2.4 282
8/25/18 0.18 0.00 84.4 69.1 55.4 74 2.3 271
8/26/18 0.16 0.00 81.8 67.3 57.9 79 2.4 243
8/27/18 0.15 0.00 81.2 65.8 56.0 80 2.4 238
8/28/18 0.18 0.00 81.7 68.4 56.0 74 2.5 273
8/29/18 0.20 0.00 88.1 71.9 57.3 65 2.4 278
8/30/18 0.19 0.00 90.6 71.9 55.5 63 1.9 256
8/31/18 0.21 0.00 91.9 72.1 53.2 58 2.2 282